createdAt,value
2018-07-13T00:02:28.322Z,4.40
2018-07-13T00:04:57.860Z,4.30
2018-07-13T00:07:26.423Z,3.83
2018-07-13T00:09:54.885Z,4.10
2018-07-13T00:12:23.359Z,4.00
2018-07-13T00:15:05.647Z,3.37
2018-07-13T00:17:34.159Z,3.73
2018-07-13T00:20:02.648Z,4.53
2018-07-13T00:22:31.283Z,3.90
2018-07-13T00:24:59.488Z,3.60
2018-07-13T00:27:27.939Z,4.30
2018-07-13T00:29:56.463Z,4.30
2018-07-13T00:32:24.947Z,3.73
2018-07-13T00:34:53.476Z,3.77
2018-07-13T00:37:21.992Z,4.07
2018-07-13T00:39:50.475Z,5.60
2018-07-13T00:42:18.957Z,4.10
2018-07-13T00:44:47.378Z,4.10
2018-07-13T00:47:15.888Z,4.37
2018-07-13T00:49:44.428Z,3.67
2018-07-13T00:52:13.020Z,4.17
2018-07-13T00:54:41.529Z,4.10
2018-07-13T00:57:10.108Z,3.83
2018-07-13T00:59:38.558Z,4.60
2018-07-13T01:02:07.185Z,3.40
2018-07-13T01:04:35.628Z,4.00
2018-07-13T01:07:04.162Z,3.70
2018-07-13T01:09:32.777Z,3.57
2018-07-13T01:12:01.294Z,3.60
2018-07-13T01:14:29.818Z,3.20
2018-07-13T01:16:58.306Z,3.80
2018-07-13T01:19:26.839Z,3.43
2018-07-13T01:21:55.342Z,3.73
2018-07-13T01:24:23.809Z,4.37
2018-07-13T01:26:52.812Z,3.70
2018-07-13T01:29:21.345Z,3.87
2018-07-13T01:31:49.910Z,3.40
2018-07-13T01:34:18.477Z,3.87
2018-07-13T01:36:46.952Z,4.07
2018-07-13T01:39:15.410Z,4.93
2018-07-13T01:41:43.905Z,4.90
2018-07-13T01:44:12.379Z,4.13
2018-07-13T01:46:40.898Z,5.27
2018-07-13T01:49:09.343Z,4.50
2018-07-13T01:51:38.520Z,4.73
2018-07-13T01:54:06.989Z,4.20
2018-07-13T01:56:35.203Z,4.00
2018-07-13T01:59:03.330Z,5.17
2018-07-13T02:01:31.817Z,4.03
2018-07-13T02:04:00.315Z,3.50
2018-07-13T02:06:28.774Z,4.10
2018-07-13T02:08:57.274Z,4.77
2018-07-13T02:11:25.866Z,4.37
2018-07-13T02:13:54.392Z,4.87
2018-07-13T02:16:22.980Z,3.90
2018-07-13T02:18:51.476Z,4.73
2018-07-13T02:21:19.926Z,4.10
2018-07-13T02:23:48.075Z,4.63
2018-07-13T02:26:16.572Z,4.67
2018-07-13T02:28:45.140Z,4.40
2018-07-13T02:31:13.672Z,4.10
2018-07-13T02:33:42.178Z,4.50
2018-07-13T02:36:10.640Z,4.47
2018-07-13T02:38:39.132Z,4.17
2018-07-13T02:41:07.273Z,4.00
2018-07-13T02:43:35.753Z,4.13
2018-07-13T02:46:04.271Z,3.90
2018-07-13T02:48:32.790Z,4.27
2018-07-13T02:51:01.477Z,4.83
2018-07-13T02:53:29.960Z,4.30
2018-07-13T02:55:58.448Z,4.10
2018-07-13T02:58:26.926Z,3.70
2018-07-13T03:00:55.417Z,3.83
2018-07-13T03:03:23.860Z,4.43
2018-07-13T03:05:52.392Z,3.87
2018-07-13T03:08:20.852Z,4.00
2018-07-13T03:10:49.142Z,3.67
2018-07-13T03:13:17.601Z,3.77
2018-07-13T03:15:45.747Z,4.30
2018-07-13T03:18:14.179Z,3.40
2018-07-13T03:20:42.691Z,3.60
2018-07-13T03:23:11.129Z,3.83
2018-07-13T03:25:39.597Z,4.70
2018-07-13T03:28:08.276Z,4.20
2018-07-13T03:30:36.834Z,4.37
2018-07-13T03:33:05.315Z,3.83
2018-07-13T03:35:34.148Z,3.73
2018-07-13T03:38:02.681Z,4.57
2018-07-13T03:40:31.201Z,4.27
2018-07-13T03:42:59.666Z,4.57
2018-07-13T03:45:28.248Z,4.60
2018-07-13T03:47:56.818Z,5.30
2018-07-13T03:50:25.317Z,4.17
2018-07-13T03:52:53.823Z,3.97
2018-07-13T03:55:22.467Z,4.70
2018-07-13T03:57:50.689Z,4.40
2018-07-13T04:00:19.187Z,4.70
2018-07-13T04:02:47.706Z,4.13
2018-07-13T04:05:16.219Z,4.40
2018-07-13T04:07:44.433Z,4.63
2018-07-13T04:10:13.006Z,4.30
2018-07-13T04:12:41.494Z,3.73
2018-07-13T04:15:10.087Z,4.23
2018-07-13T04:17:38.543Z,5.13
2018-07-13T04:20:07.064Z,4.43
2018-07-13T04:22:35.709Z,4.60
2018-07-13T04:25:03.926Z,4.07
2018-07-13T04:27:33.801Z,3.83
2018-07-13T04:30:02.536Z,5.33
2018-07-13T04:32:31.559Z,4.30
2018-07-13T04:35:00.052Z,4.13
2018-07-13T04:37:28.562Z,4.97
2018-07-13T04:39:57.015Z,4.20
2018-07-13T04:42:25.599Z,3.80
2018-07-13T04:44:54.078Z,4.30
2018-07-13T04:47:22.931Z,4.00
2018-07-13T04:49:53.045Z,5.07
2018-07-13T04:52:20.169Z,4.40
2018-07-13T04:54:48.926Z,3.80
2018-07-13T04:57:17.456Z,3.90
2018-07-13T04:59:46.022Z,5.43
2018-07-13T05:02:14.624Z,7.20
2018-07-13T05:04:43.253Z,7.43
2018-07-13T05:07:12.055Z,6.30
2018-07-13T05:09:40.731Z,6.50
2018-07-13T05:12:09.316Z,6.57
2018-07-13T05:14:37.470Z,6.37
2018-07-13T05:17:06.447Z,6.60
2018-07-13T05:19:35.011Z,6.17
2018-07-13T05:22:03.507Z,6.03
2018-07-13T05:24:32.095Z,5.50
2018-07-13T05:27:01.455Z,5.30
2018-07-13T05:29:29.718Z,5.20
2018-07-13T05:31:58.260Z,4.50
2018-07-13T05:34:26.831Z,4.87
2018-07-13T05:36:56.135Z,5.50
2018-07-13T05:39:24.658Z,5.73
2018-07-13T05:41:53.218Z,4.37
2018-07-13T05:44:21.783Z,6.10
2018-07-13T05:46:50.293Z,6.77
2018-07-13T05:49:19.190Z,5.93
2018-07-13T05:51:47.730Z,6.20
2018-07-13T05:54:16.364Z,6.00
2018-07-13T05:56:44.913Z,6.40
2018-07-13T05:59:13.487Z,6.00
2018-07-13T06:01:42.052Z,5.53
2018-07-13T06:04:10.694Z,5.67
2018-07-13T06:06:39.221Z,6.37
2018-07-13T06:09:09.723Z,6.00
2018-07-13T06:11:38.538Z,6.97
2018-07-13T06:14:07.306Z,5.73
2018-07-13T06:16:36.015Z,5.70
2018-07-13T06:19:04.907Z,5.80
2018-07-13T06:21:33.359Z,5.80
2018-07-13T06:24:02.676Z,6.30
2018-07-13T06:26:31.084Z,6.00
2018-07-13T06:28:59.649Z,6.53
2018-07-13T06:31:29.095Z,7.17
2018-07-13T06:33:57.602Z,6.23
2018-07-13T06:36:26.121Z,6.33
2018-07-13T06:38:54.656Z,6.43
2018-07-13T06:41:23.218Z,6.50
2018-07-13T06:43:51.902Z,6.97
2018-07-13T06:46:20.399Z,7.37
2018-07-13T06:48:48.890Z,6.50
2018-07-13T06:51:17.645Z,6.37
2018-07-13T06:53:46.189Z,5.80
2018-07-13T06:56:14.703Z,6.70
2018-07-13T06:58:54.523Z,7.13
2018-07-13T07:01:23.205Z,7.57
2018-07-13T07:04:40.123Z,6.10
2018-07-13T07:07:12.492Z,7.07
2018-07-13T07:09:44.460Z,5.97
2018-07-13T07:12:32.238Z,5.73
2018-07-13T07:15:01.012Z,6.23
2018-07-13T07:17:29.580Z,5.57
2018-07-13T07:19:58.092Z,5.17
2018-07-13T07:22:26.664Z,4.63
2018-07-13T07:24:54.940Z,5.23
2018-07-13T07:27:23.082Z,5.40
2018-07-13T07:29:51.550Z,5.90
2018-07-13T07:32:20.160Z,4.93
2018-07-13T07:34:48.656Z,4.57
2018-07-13T07:37:17.174Z,4.20
2018-07-13T07:39:45.753Z,5.17
2018-07-13T07:42:15.080Z,4.10
2018-07-13T07:44:43.578Z,4.70
2018-07-13T07:47:12.062Z,4.40
2018-07-13T07:49:40.608Z,3.87
2018-07-13T07:52:09.078Z,4.80
2018-07-13T07:54:37.621Z,6.23
2018-07-13T07:57:06.254Z,3.60
2018-07-13T07:59:34.707Z,4.40
2018-07-13T08:02:03.231Z,4.47
2018-07-13T08:04:31.701Z,4.57
2018-07-13T08:07:00.635Z,4.03
2018-07-13T08:09:28.839Z,6.23
2018-07-13T08:11:57.406Z,4.60
2018-07-13T08:14:26.043Z,5.13
2018-07-13T08:16:55.158Z,4.30
2018-07-13T08:19:23.639Z,4.37
2018-07-13T08:21:52.207Z,5.20
2018-07-13T08:24:22.497Z,3.80
2018-07-13T08:26:52.644Z,5.00
2018-07-13T08:29:24.516Z,4.63
2018-07-13T08:31:53.058Z,4.87
2018-07-13T08:34:21.518Z,4.50
2018-07-13T08:36:50.057Z,5.10
2018-07-13T08:39:18.543Z,3.90
2018-07-13T08:41:47.054Z,3.53
2018-07-13T08:44:15.609Z,3.57
2018-07-13T08:46:44.220Z,4.10
2018-07-13T08:49:12.783Z,4.90
2018-07-13T08:51:41.534Z,3.50
2018-07-13T08:54:10.031Z,3.90
2018-07-13T08:56:38.541Z,3.00
2018-07-13T08:59:06.721Z,2.90
2018-07-13T09:01:34.914Z,2.50
2018-07-13T09:04:03.525Z,2.10
2018-07-13T09:06:32.078Z,2.80
2018-07-13T09:09:00.496Z,2.50
2018-07-13T09:11:29.065Z,2.47
2018-07-13T09:13:57.869Z,2.97
2018-07-13T09:16:26.414Z,2.93
2018-07-13T09:18:54.901Z,3.20
2018-07-13T09:21:23.518Z,3.40
2018-07-13T09:23:52.038Z,2.50
2018-07-13T09:26:20.629Z,2.40
2018-07-13T09:28:49.591Z,2.40
2018-07-13T09:31:18.149Z,2.97
2018-07-13T09:33:46.762Z,2.70
2018-07-13T09:36:15.258Z,2.93
2018-07-13T09:38:43.702Z,2.47
2018-07-13T09:41:12.258Z,2.80
2018-07-13T09:43:40.884Z,2.50
2018-07-13T09:46:09.385Z,2.30
2018-07-13T09:48:37.861Z,2.77
2018-07-13T09:51:06.556Z,2.67
2018-07-13T09:53:35.122Z,2.57
2018-07-13T09:56:03.634Z,2.57
2018-07-13T09:58:36.239Z,2.43
2018-07-13T10:01:10.207Z,2.30
2018-07-13T10:03:38.740Z,2.30
2018-07-13T10:06:07.409Z,2.90
2018-07-13T10:08:36.737Z,1.73
2018-07-13T10:11:05.319Z,2.20
2018-07-13T10:13:33.894Z,2.47
2018-07-13T10:16:02.449Z,1.83
2018-07-13T10:18:30.621Z,1.77
2018-07-13T10:21:00.211Z,2.53
2018-07-13T10:23:29.047Z,1.90
2018-07-13T10:26:00.618Z,2.13
2018-07-13T10:28:29.245Z,2.40
2018-07-13T10:30:58.208Z,2.27
2018-07-13T10:33:26.948Z,2.27
2018-07-13T10:35:55.677Z,2.37
2018-07-13T10:38:24.263Z,2.53
2018-07-13T10:40:52.809Z,2.43
2018-07-13T10:43:21.349Z,2.83
2018-07-13T10:45:49.946Z,2.63
2018-07-13T10:48:18.628Z,2.00
2018-07-13T10:50:47.110Z,2.27
2018-07-13T10:53:15.704Z,2.03
2018-07-13T10:55:44.155Z,2.43
2018-07-13T10:58:12.755Z,1.80
2018-07-13T11:00:40.886Z,1.70
2018-07-13T11:03:09.484Z,2.03
2018-07-13T11:05:37.995Z,2.10
2018-07-13T11:08:09.546Z,2.30
2018-07-13T11:10:37.943Z,2.43
2018-07-13T11:13:06.485Z,1.73
2018-07-13T11:15:35.011Z,2.27
2018-07-13T11:18:03.732Z,2.33
2018-07-13T11:20:32.318Z,2.10
2018-07-13T11:23:00.895Z,2.00
2018-07-13T11:25:29.367Z,2.13
2018-07-13T11:27:57.541Z,2.00
2018-07-13T11:30:26.058Z,1.70
2018-07-13T11:32:55.565Z,1.57
2018-07-13T11:35:24.135Z,2.00
2018-07-13T11:37:52.350Z,2.40
2018-07-13T11:40:20.958Z,1.77
2018-07-13T11:42:49.635Z,1.77
2018-07-13T11:45:18.135Z,2.20
2018-07-13T11:47:46.647Z,1.80
2018-07-13T11:50:15.148Z,2.23
2018-07-13T11:52:43.649Z,2.40
2018-07-13T11:55:12.160Z,1.53
2018-07-13T11:57:40.729Z,2.30
2018-07-13T12:00:09.253Z,2.00
2018-07-13T12:02:37.728Z,2.13
2018-07-13T12:05:06.228Z,2.60
2018-07-13T12:07:34.783Z,2.00
2018-07-13T12:10:03.276Z,2.27
2018-07-13T12:12:31.852Z,2.00
2018-07-13T12:15:00.352Z,2.10
2018-07-13T12:17:28.962Z,1.83
2018-07-13T12:19:57.412Z,2.20
2018-07-13T12:22:25.917Z,2.60
2018-07-13T12:24:54.453Z,2.27
2018-07-13T12:27:22.907Z,1.90
2018-07-13T12:29:51.374Z,2.00
2018-07-13T12:32:19.875Z,1.70
2018-07-13T12:34:48.402Z,1.73
2018-07-13T12:37:17.073Z,2.00
2018-07-13T12:39:45.633Z,2.20
2018-07-13T12:42:14.389Z,2.40
2018-07-13T12:44:42.933Z,2.37
2018-07-13T12:47:11.427Z,1.97
2018-07-13T12:49:39.948Z,2.10
2018-07-13T12:52:08.458Z,2.30
2018-07-13T12:54:37.044Z,2.53
2018-07-13T12:57:05.804Z,2.37
2018-07-13T12:59:34.469Z,2.13
2018-07-13T13:02:02.900Z,2.10
2018-07-13T13:04:31.476Z,2.27
2018-07-13T13:06:59.996Z,2.10
2018-07-13T13:09:28.607Z,2.20
2018-07-13T13:11:57.237Z,1.97
2018-07-13T13:14:25.830Z,2.47
2018-07-13T13:16:55.318Z,2.03
2018-07-13T13:19:23.928Z,2.17
2018-07-13T13:21:52.550Z,2.10
2018-07-13T13:24:21.031Z,1.50
2018-07-13T13:26:49.675Z,1.63
2018-07-13T13:29:18.279Z,2.10
2018-07-13T13:31:46.817Z,2.10
2018-07-13T13:34:15.437Z,2.20
2018-07-13T13:36:43.984Z,2.27
2018-07-13T13:39:12.652Z,1.83
2018-07-13T13:41:41.315Z,2.30
2018-07-13T13:44:09.968Z,1.83
2018-07-13T13:46:38.248Z,1.70
2018-07-13T13:49:06.567Z,2.13
2018-07-13T13:51:35.177Z,1.40
2018-07-13T13:54:03.691Z,1.57
2018-07-13T13:56:32.229Z,2.27
2018-07-13T13:59:00.873Z,1.90
2018-07-13T14:01:29.424Z,1.93
2018-07-13T14:03:57.993Z,1.90
2018-07-13T14:06:26.580Z,1.60
2018-07-13T14:08:55.154Z,1.50
2018-07-13T14:11:23.765Z,2.00
2018-07-13T14:13:52.354Z,1.90
2018-07-13T14:16:20.934Z,2.10
2018-07-13T14:18:49.530Z,2.00
2018-07-13T14:21:18.079Z,1.93
2018-07-13T14:23:46.603Z,1.80
2018-07-13T14:26:15.073Z,1.90
2018-07-13T14:28:43.770Z,2.07
2018-07-13T14:31:12.363Z,1.70
2018-07-13T14:33:41.043Z,2.07
2018-07-13T14:36:09.533Z,2.00
2018-07-13T14:38:38.056Z,2.40
2018-07-13T14:41:07.578Z,2.10
2018-07-13T14:43:36.133Z,2.00
2018-07-13T14:46:04.913Z,2.00
2018-07-13T14:48:33.613Z,2.00
2018-07-13T14:51:02.111Z,2.10
2018-07-13T14:53:30.644Z,1.87
2018-07-13T14:55:59.221Z,2.13
2018-07-13T14:58:27.746Z,2.30
2018-07-13T15:00:56.135Z,2.00
2018-07-13T15:03:24.794Z,1.60
2018-07-13T15:05:53.642Z,2.17
2018-07-13T15:08:22.332Z,1.97
2018-07-13T15:10:50.898Z,2.03
2018-07-13T15:13:19.479Z,2.10
2018-07-13T15:15:48.074Z,1.83
2018-07-13T15:18:16.642Z,1.97
2018-07-13T15:20:45.243Z,1.70
2018-07-13T15:23:16.737Z,1.90
2018-07-13T15:25:45.271Z,2.00
2018-07-13T15:28:13.979Z,2.13
2018-07-13T15:30:42.785Z,1.73
2018-07-13T15:33:11.363Z,2.00
2018-07-13T15:35:39.944Z,2.30
2018-07-13T15:38:08.637Z,2.33
2018-07-13T15:40:37.176Z,2.40
2018-07-13T15:43:05.669Z,2.00
2018-07-13T15:45:34.284Z,2.07
2018-07-13T15:48:02.743Z,1.73
2018-07-13T15:50:30.911Z,1.87
2018-07-13T15:52:59.514Z,2.03
2018-07-13T15:55:59.567Z,1.90
2018-07-13T15:58:29.101Z,2.03
2018-07-13T16:00:57.852Z,1.90
2018-07-13T16:03:26.265Z,2.03
2018-07-13T16:05:55.127Z,2.70
2018-07-13T16:08:23.627Z,1.90
2018-07-13T16:10:52.182Z,1.83
2018-07-13T16:13:20.704Z,2.03
2018-07-13T16:15:49.173Z,2.20
2018-07-13T16:18:17.748Z,1.60
2018-07-13T16:20:46.227Z,1.73
2018-07-13T16:23:15.358Z,2.03
2018-07-13T16:25:43.938Z,2.20
2018-07-13T16:28:12.466Z,2.27
2018-07-13T16:30:40.988Z,1.73
2018-07-13T16:33:09.705Z,2.50
2018-07-13T16:35:38.343Z,2.00
2018-07-13T16:38:06.875Z,3.10
2018-07-13T16:40:35.394Z,2.57
2018-07-13T16:43:04.561Z,2.23
2018-07-13T16:45:33.136Z,2.57
2018-07-13T16:48:01.681Z,3.30
2018-07-13T16:50:30.342Z,5.37
2018-07-13T16:52:58.763Z,6.23
2018-07-13T16:55:27.404Z,2.93
2018-07-13T16:57:56.099Z,9.00
2018-07-13T17:00:24.604Z,9.03
2018-07-13T17:02:53.071Z,2.20
2018-07-13T17:05:21.634Z,2.47
2018-07-13T17:07:51.075Z,2.20
2018-07-13T17:10:19.643Z,2.47
2018-07-13T17:12:48.147Z,8.23
2018-07-13T17:15:16.705Z,5.37
2018-07-13T17:17:45.292Z,2.20
2018-07-13T17:20:13.918Z,2.13
2018-07-13T17:22:42.457Z,3.67
2018-07-13T17:25:10.622Z,3.63
2018-07-13T17:27:39.100Z,2.90
2018-07-13T17:30:09.216Z,2.67
2018-07-13T17:32:37.698Z,2.20
2018-07-13T17:35:06.369Z,3.23
2018-07-13T17:37:34.968Z,1.90
2018-07-13T17:40:03.731Z,2.73
2018-07-13T17:42:32.850Z,3.07
2018-07-13T17:45:02.116Z,2.23
2018-07-13T17:47:30.720Z,2.27
2018-07-13T17:49:59.291Z,2.30
2018-07-13T17:52:27.831Z,2.40
2018-07-13T17:54:56.583Z,2.67
2018-07-13T17:57:25.129Z,3.00
2018-07-13T17:59:56.626Z,2.80
2018-07-13T18:02:25.152Z,2.67
2018-07-13T18:04:53.682Z,2.43
2018-07-13T18:07:22.221Z,2.10
2018-07-13T18:09:50.716Z,2.33
2018-07-13T18:12:19.339Z,2.30
2018-07-13T18:14:47.878Z,2.03
2018-07-13T18:17:16.536Z,2.17
2018-07-13T18:19:45.029Z,1.80
2018-07-13T18:22:13.548Z,1.93
2018-07-13T18:24:42.096Z,1.80
2018-07-13T18:27:10.690Z,2.30
2018-07-13T18:29:39.263Z,2.03
2018-07-13T18:32:07.973Z,2.40
2018-07-13T18:34:36.547Z,2.30
2018-07-13T18:37:05.260Z,148.20
2018-07-13T18:39:35.218Z,165.57
2018-07-13T18:42:04.052Z,190.30
2018-07-13T18:44:32.746Z,123.20
2018-07-13T18:47:01.638Z,44.40
2018-07-13T18:49:30.229Z,21.30
2018-07-13T18:51:58.857Z,12.00
2018-07-13T18:54:28.043Z,10.53
2018-07-13T18:56:56.625Z,10.10
2018-07-13T18:59:25.664Z,10.00
2018-07-13T19:01:54.489Z,6.87
2018-07-13T19:04:23.524Z,5.37
2018-07-13T19:06:53.001Z,5.40
2018-07-13T19:09:21.860Z,5.13
2018-07-13T19:11:50.997Z,4.33
2018-07-13T19:14:19.950Z,3.93
2018-07-13T19:16:48.939Z,3.20
2018-07-13T19:19:18.756Z,4.77
2018-07-13T19:21:48.822Z,4.67
2018-07-13T19:24:17.800Z,4.27
2018-07-13T19:26:50.301Z,3.60
2018-07-13T19:29:19.599Z,3.27
2018-07-13T19:31:48.668Z,3.50
2018-07-13T19:34:17.835Z,3.40
2018-07-13T19:36:46.698Z,3.17
2018-07-13T19:39:15.660Z,2.83
2018-07-13T19:41:44.941Z,3.00
2018-07-13T19:44:14.362Z,2.80
2018-07-13T19:46:43.907Z,47.33
2018-07-13T19:49:12.808Z,14.80
2018-07-13T19:51:42.346Z,4.90
2018-07-13T19:54:12.264Z,4.60
2018-07-13T19:56:41.027Z,5.80
2018-07-13T19:59:10.242Z,4.70
2018-07-13T20:01:40.214Z,3.70
2018-07-13T20:04:09.250Z,3.90
2018-07-13T20:06:38.864Z,4.33
2018-07-13T20:09:08.230Z,4.13
2018-07-13T20:11:37.928Z,4.00
2018-07-13T20:14:07.094Z,4.40
2018-07-13T20:16:38.560Z,3.63
2018-07-13T20:19:08.155Z,3.80
2018-07-13T20:21:37.313Z,9.27
2018-07-13T20:24:06.155Z,8.80
2018-07-13T20:26:35.279Z,5.50
2018-07-13T20:29:04.245Z,3.70
2018-07-13T20:31:33.327Z,2.90
2018-07-13T20:34:02.274Z,3.20
2018-07-13T20:36:32.247Z,4.37
2018-07-13T20:39:01.444Z,4.70
2018-07-13T20:41:31.174Z,3.77
2018-07-13T20:43:59.847Z,4.60
2018-07-13T20:46:28.587Z,6.07
2018-07-13T20:48:57.462Z,6.30
2018-07-13T20:51:26.353Z,11.00
2018-07-13T20:53:55.293Z,20.37
2018-07-13T20:56:24.481Z,10.40
2018-07-13T20:58:53.074Z,4.30
2018-07-13T21:01:21.842Z,3.90
2018-07-13T21:03:50.848Z,4.47
2018-07-13T21:06:19.641Z,2.57
2018-07-13T21:08:48.528Z,2.80
2018-07-13T21:11:17.504Z,4.30
2018-07-13T21:13:46.136Z,3.40
2018-07-13T21:16:15.217Z,3.77
2018-07-13T21:18:44.292Z,3.53
2018-07-13T21:21:13.284Z,2.80
2018-07-13T21:23:41.949Z,3.00
2018-07-13T21:26:10.660Z,2.87
2018-07-13T21:28:39.261Z,2.70
2018-07-13T21:31:07.830Z,3.10
2018-07-13T21:33:36.318Z,3.17
2018-07-13T21:36:04.846Z,3.47
2018-07-13T21:38:34.427Z,3.20
2018-07-13T21:41:03.009Z,3.40
2018-07-13T21:43:31.802Z,3.50
2018-07-13T21:46:00.392Z,3.30
2018-07-13T21:48:28.970Z,3.30
2018-07-13T21:50:57.667Z,2.60
2018-07-13T21:53:26.267Z,3.20
2018-07-13T21:55:54.852Z,3.27
2018-07-13T21:58:23.347Z,3.43
2018-07-13T22:00:51.876Z,3.27
2018-07-13T22:03:20.361Z,3.10
2018-07-13T22:05:48.887Z,4.17
2018-07-13T22:08:17.379Z,3.40
2018-07-13T22:10:45.937Z,3.87
2018-07-13T22:13:14.154Z,4.50
2018-07-13T22:15:42.737Z,3.40
2018-07-13T22:18:11.247Z,3.23
2018-07-13T22:20:39.774Z,3.20
2018-07-13T22:23:08.393Z,3.70
2018-07-13T22:25:36.951Z,3.47
2018-07-13T22:28:05.160Z,2.83
2018-07-13T22:30:33.658Z,2.87
2018-07-13T22:33:02.206Z,2.90
2018-07-13T22:35:30.716Z,3.73
2018-07-13T22:37:59.198Z,2.97
2018-07-13T22:40:27.819Z,3.33
2018-07-13T22:42:56.310Z,3.30
2018-07-13T22:45:24.864Z,2.90
2018-07-13T22:47:53.654Z,3.20
2018-07-13T22:50:22.212Z,3.07
2018-07-13T22:52:50.512Z,3.40
2018-07-13T22:55:19.058Z,3.10
2018-07-13T22:57:47.607Z,2.83
2018-07-13T23:00:16.108Z,3.40
2018-07-13T23:02:44.599Z,3.43
2018-07-13T23:05:13.217Z,3.00
2018-07-13T23:07:41.775Z,2.97
2018-07-13T23:10:10.242Z,2.80
2018-07-13T23:12:38.818Z,2.90
2018-07-13T23:15:07.478Z,2.93
2018-07-13T23:17:35.736Z,3.80
2018-07-13T23:20:04.649Z,3.30
2018-07-13T23:22:33.177Z,3.40
2018-07-13T23:25:01.936Z,3.07
2018-07-13T23:27:30.503Z,3.50
2018-07-13T23:29:58.973Z,2.60
2018-07-13T23:32:27.827Z,2.63
2018-07-13T23:34:56.342Z,3.20
2018-07-13T23:37:24.815Z,3.80
2018-07-13T23:39:53.408Z,3.40
2018-07-13T23:42:21.896Z,3.27
2018-07-13T23:44:50.529Z,3.00
2018-07-13T23:47:19.324Z,2.70
2018-07-13T23:49:47.843Z,2.80
2018-07-13T23:52:16.430Z,2.67
2018-07-13T23:54:44.915Z,3.13
2018-07-13T23:57:13.506Z,2.77
2018-07-13T23:59:42.056Z,2.90
